createdAt,value
2022-09-05T00:00:06.700Z,8.50
2022-09-05T00:02:54.202Z,8.90
2022-09-05T00:06:02.550Z,9.23
2022-09-05T00:08:44.651Z,9.13
2022-09-05T00:11:42.806Z,9.60
2022-09-05T00:14:34.451Z,10.17
2022-09-05T00:17:27.833Z,10.13
2022-09-05T00:24:28.936Z,9.93
2022-09-05T00:24:45.726Z,10.90
2022-09-05T00:26:26.011Z,10.67
2022-09-05T00:29:06.184Z,11.30
2022-09-05T00:31:56.838Z,10.63
2022-09-05T00:34:56.216Z,10.53
2022-09-05T00:37:33.161Z,9.97
2022-09-05T00:40:29.342Z,10.63
2022-09-05T00:43:02.852Z,10.27
2022-09-05T00:45:36.675Z,9.63
2022-09-05T00:48:15.455Z,9.57
2022-09-05T00:50:58.359Z,9.57
2022-09-05T00:53:34.809Z,9.57
2022-09-05T00:56:14.633Z,9.40
2022-09-05T00:59:09.860Z,9.93
2022-09-05T01:01:45.350Z,9.37
2022-09-05T01:04:28.312Z,9.43
2022-09-05T01:07:10.385Z,9.33
2022-09-05T01:09:56.911Z,8.73
2022-09-05T01:12:52.820Z,9.73
2022-09-05T01:15:32.754Z,9.30
2022-09-05T01:18:31.239Z,8.47
2022-09-05T01:21:14.088Z,8.13
2022-09-05T01:23:55.493Z,7.73
2022-09-05T01:27:01.775Z,8.50
2022-09-05T01:29:41.333Z,7.27
2022-09-05T01:32:31.701Z,7.20
2022-09-05T01:35:25.826Z,6.93
2022-09-05T01:37:59.916Z,7.40
2022-09-05T01:40:38.339Z,7.30
2022-09-05T01:43:18.187Z,7.57
2022-09-05T01:45:51.246Z,7.60
2022-09-05T01:48:34.741Z,7.13
2022-09-05T01:51:29.541Z,7.07
2022-09-05T01:54:23.524Z,6.90
2022-09-05T01:57:08.260Z,8.00
2022-09-05T01:59:46.042Z,7.37
2022-09-05T02:02:32.759Z,6.73
2022-09-05T02:05:47.660Z,8.10
2022-09-05T02:08:30.022Z,6.90
2022-09-05T02:11:07.332Z,9.53
2022-09-05T02:13:53.497Z,7.33
2022-09-05T02:16:27.687Z,7.50
2022-09-05T02:19:06.613Z,7.13
2022-09-05T02:21:55.628Z,7.10
2022-09-05T02:24:30.348Z,7.47
2022-09-05T02:27:35.308Z,6.83
2022-09-05T02:30:09.467Z,6.57
2022-09-05T02:32:48.125Z,6.27
2022-09-05T02:35:25.289Z,5.93
2022-09-05T02:39:09.206Z,5.53
2022-09-05T02:45:14.498Z,6.10
2022-09-05T02:45:21.827Z,5.60
2022-09-05T02:46:46.728Z,7.80
2022-09-05T02:51:52.196Z,5.67
2022-09-05T02:57:24.732Z,6.37
2022-09-05T02:57:39.469Z,5.37
2022-09-05T02:58:27.033Z,6.20
2022-09-05T03:01:02.371Z,5.43
2022-09-05T03:03:39.167Z,5.73
2022-09-05T03:06:17.754Z,5.53
2022-09-05T03:09:24.415Z,5.63
2022-09-05T03:12:35.455Z,6.00
2022-09-05T03:15:31.167Z,6.00
2022-09-05T03:18:29.514Z,6.37
2022-09-05T03:21:57.987Z,6.20
2022-09-05T03:25:04.041Z,7.13
2022-09-05T03:28:03.408Z,6.47
2022-09-05T03:30:50.923Z,6.43
2022-09-05T03:34:12.440Z,6.57
2022-09-05T03:37:05.261Z,6.53
2022-09-05T03:39:59.426Z,7.03
2022-09-05T03:43:00.027Z,6.73
2022-09-05T03:45:49.521Z,6.77
2022-09-05T03:48:34.804Z,6.90
2022-09-05T03:57:12.399Z,6.77
2022-09-05T03:57:15.202Z,6.70
2022-09-05T03:57:42.536Z,7.53
2022-09-05T04:00:22.379Z,8.03
2022-09-05T04:08:05.953Z,9.13
2022-09-05T04:08:16.802Z,7.97
2022-09-05T04:08:55.435Z,9.70
2022-09-05T04:11:33.267Z,8.60
2022-09-05T04:14:05.651Z,8.80
2022-09-05T04:16:47.392Z,8.80
2022-09-05T04:19:22.063Z,10.33
2022-09-05T04:21:56.504Z,9.40
2022-09-05T04:24:31.355Z,9.97
2022-09-05T04:27:21.145Z,8.70
2022-09-05T04:30:11.684Z,9.10
2022-09-05T04:33:00.493Z,9.50
2022-09-05T04:35:34.884Z,12.10
2022-09-05T04:38:12.244Z,9.37
2022-09-05T04:40:43.918Z,12.57
2022-09-05T04:43:19.995Z,11.37
2022-09-05T04:45:53.490Z,9.50
2022-09-05T04:48:28.029Z,11.90
2022-09-05T04:51:06.188Z,9.47
2022-09-05T04:54:16.600Z,9.77
2022-09-05T04:56:50.531Z,9.73
2022-09-05T05:01:13.176Z,15.83
2022-09-05T05:06:02.017Z,12.50
2022-09-05T05:06:09.581Z,18.43
2022-09-05T05:08:23.893Z,16.50
2022-09-05T05:14:35.377Z,10.93
2022-09-05T05:17:55.392Z,14.00
2022-09-05T05:18:13.922Z,10.03
2022-09-05T05:19:43.333Z,8.30
2022-09-05T05:22:18.358Z,7.60
2022-09-05T05:24:49.148Z,10.10
2022-09-05T05:27:23.102Z,7.30
2022-09-05T05:29:56.598Z,7.77
2022-09-05T05:32:43.661Z,11.20
2022-09-05T05:35:17.061Z,9.20
2022-09-05T05:37:49.993Z,7.90
2022-09-05T05:40:22.914Z,12.43
2022-09-05T05:42:50.904Z,9.70
2022-09-05T05:45:21.569Z,10.97
2022-09-05T05:47:53.219Z,12.67
2022-09-05T05:50:34.563Z,8.30
2022-09-05T05:53:43.146Z,8.83
2022-09-05T05:56:39.266Z,8.87
2022-09-05T05:59:33.621Z,10.03
2022-09-05T06:02:43.401Z,9.35
2022-09-05T06:05:35.023Z,7.63
2022-09-05T06:11:40.234Z,7.20
2022-09-05T06:15:07.078Z,7.53
2022-09-05T06:15:25.155Z,8.77
2022-09-05T06:18:20.005Z,7.95
2022-09-05T06:22:08.690Z,7.20
2022-09-05T06:24:34.436Z,7.57
2022-09-05T06:27:32.914Z,12.98
2022-09-05T06:30:05.737Z,9.40
2022-09-05T06:33:09.648Z,7.80
2022-09-05T06:35:50.968Z,7.43
2022-09-05T06:38:52.891Z,7.72
2022-09-05T06:41:29.556Z,7.35
2022-09-05T06:44:40.414Z,7.38
2022-09-05T06:47:30.168Z,6.70
2022-09-05T06:50:24.120Z,7.80
2022-09-05T06:53:39.587Z,7.00
2022-09-05T06:56:30.656Z,6.70
2022-09-05T06:59:25.355Z,6.82
2022-09-05T07:02:00.608Z,6.40
2022-09-05T07:05:23.826Z,6.15
2022-09-05T07:07:34.620Z,6.47
2022-09-05T07:10:28.183Z,5.28
2022-09-05T07:13:04.743Z,4.65
2022-09-05T07:15:44.509Z,5.13
2022-09-05T07:18:20.505Z,5.13
2022-09-05T07:21:18.283Z,5.45
2022-09-05T07:24:07.118Z,8.35
2022-09-05T07:26:51.475Z,4.82
2022-09-05T07:29:28.167Z,4.85
2022-09-05T07:31:59.968Z,5.72
2022-09-05T07:34:30.833Z,4.55
2022-09-05T07:37:14.999Z,5.25
2022-09-05T07:39:54.691Z,5.63
2022-09-05T07:42:28.262Z,4.47
2022-09-05T07:44:59.311Z,5.05
2022-09-05T07:47:32.074Z,5.20
2022-09-05T07:51:00.710Z,4.50
2022-09-05T07:56:50.275Z,4.63
2022-09-05T07:57:06.156Z,4.60
2022-09-05T07:58:39.809Z,4.70
2022-09-05T08:01:10.473Z,7.25
2022-09-05T08:03:40.031Z,4.78
2022-09-05T08:06:14.844Z,4.80
2022-09-05T08:10:06.661Z,5.28
2022-09-05T08:12:04.548Z,6.03
2022-09-05T08:14:46.015Z,5.38
2022-09-05T08:17:19.505Z,6.35
2022-09-05T08:20:09.155Z,6.80
2022-09-05T08:22:52.670Z,5.20
2022-09-05T08:25:25.604Z,7.32
2022-09-05T08:28:07.536Z,5.25
2022-09-05T08:30:44.093Z,5.78
2022-09-05T08:33:16.332Z,4.90
2022-09-05T08:35:57.743Z,6.13
2022-09-05T08:38:38.784Z,5.47
2022-09-05T08:41:16.452Z,5.20
2022-09-05T08:46:41.900Z,7.38
2022-09-05T08:46:50.881Z,5.18
2022-09-05T08:49:44.017Z,4.50
2022-09-05T08:52:28.039Z,5.00
2022-09-05T08:55:07.761Z,4.07
2022-09-05T08:58:05.745Z,5.65
2022-09-05T09:00:39.431Z,6.75
2022-09-05T09:03:16.320Z,5.10
2022-09-05T09:06:15.925Z,5.85
2022-09-05T09:09:09.540Z,4.93
2022-09-05T09:11:40.140Z,5.75
2022-09-05T09:14:36.517Z,5.85
2022-09-05T09:17:20.408Z,6.18
2022-09-05T09:19:53.130Z,6.20
2022-09-05T09:22:39.339Z,4.82
2022-09-05T09:25:15.288Z,4.85
2022-09-05T09:28:48.034Z,5.60
2022-09-05T09:31:07.024Z,4.55
2022-09-05T09:33:42.899Z,4.90
2022-09-05T09:36:25.937Z,4.60
2022-09-05T09:39:38.759Z,5.05
2022-09-05T09:42:33.052Z,5.03
2022-09-05T09:45:29.669Z,4.68
2022-09-05T09:48:20.609Z,4.32
2022-09-05T09:51:05.685Z,4.57
2022-09-05T09:53:49.733Z,5.40
2022-09-05T09:56:48.491Z,4.38
2022-09-05T09:59:35.504Z,4.18
2022-09-05T10:06:43.741Z,3.83
2022-09-05T10:10:50.236Z,3.90
2022-09-05T10:10:53.991Z,4.72
2022-09-05T10:12:17.505Z,4.38
2022-09-05T10:15:30.897Z,4.65
2022-09-05T10:18:31.458Z,5.72
2022-09-05T10:21:29.601Z,9.68
2022-09-05T10:24:35.654Z,5.13
2022-09-05T10:27:29.630Z,4.45
2022-09-05T10:30:41.834Z,4.28
2022-09-05T10:35:15.498Z,5.22
2022-09-05T10:36:27.105Z,4.63
2022-09-05T10:39:18.095Z,4.68
2022-09-05T10:41:51.015Z,6.15
2022-09-05T10:44:27.182Z,4.72
2022-09-05T10:47:06.863Z,5.82
2022-09-05T10:49:38.088Z,5.20
2022-09-05T10:52:19.066Z,3.83
2022-09-05T10:55:14.665Z,5.82
2022-09-05T10:58:12.538Z,8.48
2022-09-05T11:02:29.254Z,4.90
2022-09-05T11:03:56.451Z,4.20
2022-09-05T11:06:37.107Z,4.07
2022-09-05T11:09:16.396Z,5.25
2022-09-05T11:11:51.346Z,3.80
2022-09-05T11:14:35.159Z,4.20
2022-09-05T11:17:12.912Z,4.00
2022-09-05T11:19:44.478Z,5.55
2022-09-05T11:22:23.935Z,4.93
2022-09-05T11:24:56.818Z,4.68
2022-09-05T11:27:33.075Z,4.00
2022-09-05T11:30:05.709Z,3.80
2022-09-05T11:39:47.726Z,3.97
2022-09-05T11:39:48.206Z,4.50
2022-09-05T11:40:24.830Z,3.83
2022-09-05T11:42:29.364Z,3.88
2022-09-05T11:45:20.740Z,4.53
2022-09-05T11:48:17.136Z,4.20
2022-09-05T11:51:34.112Z,3.80
2022-09-05T11:54:43.971Z,9.45
2022-09-05T11:57:42.903Z,4.40
2022-09-05T12:00:31.123Z,4.97
2022-09-05T12:03:59.439Z,5.00
2022-09-05T12:07:15.642Z,3.85
2022-09-05T12:10:46.909Z,3.95
2022-09-05T12:13:35.177Z,4.47
2022-09-05T12:16:20.054Z,3.90
2022-09-05T12:19:19.292Z,5.15
2022-09-05T12:22:08.843Z,4.60
2022-09-05T12:25:25.325Z,4.40
2022-09-05T12:29:27.514Z,4.22
2022-09-05T12:30:57.136Z,4.90
2022-09-05T12:36:09.704Z,5.40
2022-09-05T12:40:05.171Z,5.35
2022-09-05T12:40:57.773Z,4.68
2022-09-05T12:42:39.994Z,5.13
2022-09-05T12:45:32.463Z,4.32
2022-09-05T12:48:13.521Z,5.22
2022-09-05T12:50:47.064Z,5.68
2022-09-05T12:53:19.512Z,4.40
2022-09-05T12:56:02.061Z,4.63
2022-09-05T13:03:05.628Z,4.80
2022-09-05T13:03:14.613Z,5.75
2022-09-05T13:04:32.060Z,4.40
2022-09-05T13:07:09.524Z,4.40
2022-09-05T13:11:10.052Z,4.68
2022-09-05T13:14:58.637Z,4.50
2022-09-05T13:15:28.249Z,4.22
2022-09-05T13:18:02.916Z,3.90
2022-09-05T13:20:35.475Z,4.22
2022-09-05T13:23:13.915Z,4.95
2022-09-05T13:25:43.948Z,4.53
2022-09-05T13:28:15.692Z,5.55
2022-09-05T13:34:12.710Z,4.82
2022-09-05T13:38:15.471Z,4.50
2022-09-05T13:38:29.397Z,4.43
2022-09-05T13:39:29.274Z,5.60
2022-09-05T13:42:01.556Z,4.50
2022-09-05T13:44:30.784Z,4.40
2022-09-05T13:47:02.613Z,4.13
2022-09-05T13:50:05.097Z,4.53
2022-09-05T13:52:39.701Z,5.70
2022-09-05T13:55:40.080Z,5.93
2022-09-05T13:58:13.187Z,4.45
2022-09-05T14:01:23.359Z,4.65
2022-09-05T14:07:50.185Z,4.57
2022-09-05T14:10:45.145Z,6.25
2022-09-05T14:13:19.735Z,6.07
2022-09-05T14:15:53.870Z,4.20
2022-09-05T14:18:24.796Z,5.03
2022-09-05T14:21:15.264Z,5.05
2022-09-05T14:23:53.629Z,5.40
2022-09-05T14:26:29.552Z,4.40
2022-09-05T14:29:14.270Z,3.55
2022-09-05T14:37:35.356Z,4.70
2022-09-05T14:38:01.184Z,6.03
2022-09-05T14:38:15.264Z,3.88
2022-09-05T14:41:34.441Z,5.75
2022-09-05T14:44:28.673Z,4.35
2022-09-05T14:47:37.725Z,4.95
2022-09-05T14:50:38.100Z,8.55
2022-09-05T14:56:23.151Z,4.30
2022-09-05T15:02:42.069Z,5.43
2022-09-05T15:02:52.381Z,4.03
2022-09-05T15:04:44.624Z,4.38
2022-09-05T15:07:17.229Z,4.70
2022-09-05T15:12:17.314Z,4.10
2022-09-05T15:12:46.057Z,4.60
2022-09-05T15:15:22.644Z,4.80
2022-09-05T15:17:57.482Z,5.60
2022-09-05T15:20:35.789Z,4.70
2022-09-05T15:23:16.347Z,6.43
2022-09-05T15:25:48.281Z,6.38
2022-09-05T15:28:21.901Z,4.18
2022-09-05T15:30:58.807Z,4.28
2022-09-05T15:33:30.417Z,6.45
2022-09-05T15:35:59.515Z,4.82
2022-09-05T15:38:31.416Z,4.75
2022-09-05T15:41:17.273Z,4.38
2022-09-05T15:43:59.778Z,4.30
2022-09-05T15:46:37.198Z,6.22
2022-09-05T15:49:25.660Z,4.65
2022-09-05T15:51:56.836Z,5.28
2022-09-05T15:54:37.546Z,5.38
2022-09-05T15:57:15.255Z,5.20
2022-09-05T15:59:49.192Z,4.75
2022-09-05T16:02:22.074Z,5.47
2022-09-05T16:10:34.448Z,6.95
2022-09-05T16:10:49.601Z,4.50
2022-09-05T16:11:38.290Z,5.93
2022-09-05T16:13:52.984Z,6.28
2022-09-05T16:23:17.686Z,4.93
2022-09-05T16:23:26.367Z,5.35
2022-09-05T16:23:29.521Z,7.40
2022-09-05T16:25:06.119Z,4.65
2022-09-05T16:27:53.388Z,3.90
2022-09-05T16:30:24.096Z,6.55
2022-09-05T16:32:57.611Z,4.78
2022-09-05T16:35:26.655Z,8.77
2022-09-05T16:38:07.057Z,5.95
2022-09-05T16:40:39.300Z,5.13
2022-09-05T16:43:11.396Z,4.80
2022-09-05T16:45:47.656Z,5.03
2022-09-05T16:48:34.526Z,5.30
2022-09-05T16:51:15.413Z,11.30
2022-09-05T16:53:58.481Z,9.13
2022-09-05T16:56:31.235Z,5.00
2022-09-05T16:59:02.946Z,4.82
2022-09-05T17:02:06.030Z,7.72
2022-09-05T17:05:04.741Z,4.40
2022-09-05T17:07:44.305Z,5.90
2022-09-05T17:10:19.309Z,4.93
2022-09-05T17:12:51.663Z,4.15
2022-09-05T17:15:26.129Z,4.82
2022-09-05T17:18:22.292Z,4.45
2022-09-05T17:20:50.884Z,5.32
2022-09-05T17:27:57.006Z,3.93
2022-09-05T17:29:25.036Z,4.53
2022-09-05T17:29:33.769Z,4.97
2022-09-05T17:31:58.887Z,5.00
2022-09-05T17:35:17.641Z,6.20
2022-09-05T17:38:30.003Z,6.37
2022-09-05T17:41:34.731Z,4.60
2022-09-05T17:44:10.732Z,7.93
2022-09-05T17:46:48.530Z,6.93
2022-09-05T17:49:42.913Z,6.60
2022-09-05T17:52:28.677Z,5.57
2022-09-05T17:54:57.338Z,11.03
2022-09-05T17:57:41.456Z,6.93
2022-09-05T18:00:49.493Z,7.87
2022-09-05T18:04:15.974Z,7.30
2022-09-05T18:06:59.625Z,7.47
2022-09-05T18:10:14.736Z,7.30
2022-09-05T18:13:13.624Z,7.63
2022-09-05T18:16:12.023Z,10.73
2022-09-05T18:19:29.099Z,10.10
2022-09-05T18:21:49.934Z,7.67
2022-09-05T18:24:24.794Z,7.00
2022-09-05T18:27:27.450Z,7.17
2022-09-05T18:30:01.766Z,6.90
2022-09-05T18:32:47.295Z,5.10
2022-09-05T18:35:36.201Z,6.83
2022-09-05T18:38:51.674Z,4.73
2022-09-05T18:41:28.203Z,4.50
2022-09-05T18:44:13.266Z,4.20
2022-09-05T18:46:52.467Z,5.53
2022-09-05T18:50:22.141Z,4.30
2022-09-05T18:52:23.752Z,4.57
2022-09-05T18:55:31.717Z,4.10
2022-09-05T18:57:48.295Z,3.90
2022-09-05T19:00:35.203Z,5.03
2022-09-05T19:03:19.607Z,7.10
2022-09-05T19:06:04.261Z,5.23
2022-09-05T19:08:49.053Z,4.57
2022-09-05T19:11:28.671Z,6.53
2022-09-05T19:14:25.238Z,5.47
2022-09-05T19:16:49.657Z,4.50
2022-09-05T19:19:24.798Z,5.70
2022-09-05T19:21:57.179Z,5.50
2022-09-05T19:24:46.078Z,5.50
2022-09-05T19:29:56.286Z,5.20
2022-09-05T19:36:51.373Z,4.20
2022-09-05T19:36:57.699Z,5.37
2022-09-05T19:37:03.964Z,4.70
2022-09-05T19:39:01.509Z,4.37
2022-09-05T19:47:27.912Z,10.67
2022-09-05T19:47:37.702Z,6.53
2022-09-05T19:47:55.936Z,6.53
2022-09-05T19:50:21.748Z,5.53
2022-09-05T19:52:54.551Z,5.30
2022-09-05T19:55:26.177Z,5.30
2022-09-05T19:58:19.498Z,5.37
2022-09-05T20:00:55.570Z,5.20
2022-09-05T20:03:37.164Z,7.13
2022-09-05T20:06:28.646Z,6.70
2022-09-05T20:09:11.176Z,5.73
2022-09-05T20:11:46.230Z,5.73
2022-09-05T20:14:26.728Z,7.43
2022-09-05T20:16:57.862Z,9.57
2022-09-05T20:19:29.948Z,6.27
2022-09-05T20:22:12.838Z,6.67
2022-09-05T20:24:54.305Z,9.37
2022-09-05T20:27:27.526Z,9.80
2022-09-05T20:29:58.795Z,7.80
2022-09-05T20:32:39.686Z,7.60
2022-09-05T20:38:36.816Z,7.87
2022-09-05T20:43:21.593Z,7.57
2022-09-05T20:43:22.130Z,7.00
2022-09-05T20:43:55.805Z,6.40
2022-09-05T20:51:27.909Z,7.93
2022-09-05T20:54:06.773Z,6.73
2022-09-05T20:54:20.957Z,6.03
2022-09-05T20:55:38.940Z,6.17
2022-09-05T20:58:12.430Z,8.73
2022-09-05T21:01:15.379Z,6.50
2022-09-05T21:03:38.028Z,6.80
2022-09-05T21:06:22.026Z,7.33
2022-09-05T21:08:50.740Z,5.87
2022-09-05T21:11:28.639Z,11.27
2022-09-05T21:14:01.792Z,6.97
2022-09-05T21:16:32.975Z,8.80
2022-09-05T21:19:00.936Z,6.53
2022-09-05T21:21:31.220Z,7.93
2022-09-05T21:24:16.663Z,5.97
2022-09-05T21:26:48.522Z,5.50
2022-09-05T21:29:27.216Z,7.23
2022-09-05T21:32:02.001Z,5.60
2022-09-05T21:34:34.360Z,5.40
2022-09-05T21:37:07.107Z,6.37
2022-09-05T21:39:40.167Z,5.50
2022-09-05T21:42:42.803Z,5.20
2022-09-05T21:47:39.701Z,5.53
2022-09-05T21:47:53.143Z,6.03
2022-09-05T21:50:30.638Z,6.03
2022-09-05T21:53:52.369Z,5.57
2022-09-05T21:59:16.840Z,6.03
2022-09-05T21:59:36.467Z,5.40
2022-09-05T22:01:51.555Z,6.50
2022-09-05T22:04:19.350Z,5.67
2022-09-05T22:06:48.544Z,6.27
2022-09-05T22:09:17.352Z,5.70
2022-09-05T22:11:48.000Z,7.63
2022-09-05T22:14:15.865Z,6.00
2022-09-05T22:16:47.409Z,6.93
2022-09-05T22:19:22.905Z,6.90
2022-09-05T22:21:54.558Z,6.83
2022-09-05T22:24:24.295Z,10.57
2022-09-05T22:27:11.229Z,7.27
2022-09-05T22:29:41.073Z,6.50
2022-09-05T22:32:10.400Z,10.93
2022-09-05T22:34:38.324Z,8.57
2022-09-05T22:37:06.383Z,9.70
2022-09-05T22:39:37.274Z,8.30
2022-09-05T22:42:10.152Z,8.27
2022-09-05T22:44:39.690Z,5.90
2022-09-05T22:47:09.202Z,7.10
2022-09-05T22:49:38.632Z,6.07
2022-09-05T22:52:07.903Z,6.73
2022-09-05T22:54:36.347Z,6.40
2022-09-05T22:57:05.178Z,6.17
2022-09-05T22:59:33.101Z,7.20
2022-09-05T23:02:01.098Z,6.37
2022-09-05T23:04:29.275Z,5.60
2022-09-05T23:07:02.550Z,5.50
2022-09-05T23:09:30.690Z,5.03
2022-09-05T23:11:58.675Z,5.13
2022-09-05T23:14:26.567Z,5.50
2022-09-05T23:16:55.071Z,5.87
2022-09-05T23:19:22.980Z,6.13
2022-09-05T23:21:50.876Z,5.00
2022-09-05T23:24:20.179Z,5.60
2022-09-05T23:26:48.040Z,5.40
2022-09-05T23:29:16.060Z,6.80
2022-09-05T23:31:43.924Z,6.87
2022-09-05T23:34:11.824Z,5.43
2022-09-05T23:36:39.713Z,6.23
2022-09-05T23:39:07.673Z,5.43
2022-09-05T23:41:37.031Z,6.33
2022-09-05T23:44:12.146Z,5.73
2022-09-05T23:46:40.614Z,8.23
2022-09-05T23:49:08.646Z,6.03
2022-09-05T23:51:36.691Z,6.03
2022-09-05T23:54:04.756Z,6.50
2022-09-05T23:56:32.662Z,6.40
2022-09-05T23:59:01.996Z,5.97
